sensor_id;sensor_type;location;lat;lon;timestamp;pressure;altitude;pressure_sealevel;temperature;humidity
41712;BME280;27399;51.516;13.670;2022-08-23T00:01:22;100604.75;;;21.39;78.56
41712;BME280;27399;51.516;13.670;2022-08-23T00:03:48;100601.84;;;21.24;79.03
41712;BME280;27399;51.516;13.670;2022-08-23T00:06:15;100602.91;;;21.39;78.88
41712;BME280;27399;51.516;13.670;2022-08-23T00:08:41;100601.84;;;21.24;79.01
41712;BME280;27399;51.516;13.670;2022-08-23T00:11:22;100592.38;;;21.33;79.11
41712;BME280;27399;51.516;13.670;2022-08-23T00:13:48;100595.00;;;21.34;78.61
41712;BME280;27399;51.516;13.670;2022-08-23T00:16:14;100593.19;;;21.35;79.19
41712;BME280;27399;51.516;13.670;2022-08-23T00:18:40;100591.91;;;21.25;80.05
41712;BME280;27399;51.516;13.670;2022-08-23T00:21:08;100588.06;;;21.29;80.30
41712;BME280;27399;51.516;13.670;2022-08-23T00:23:35;100583.94;;;21.39;80.52
41712;BME280;27399;51.516;13.670;2022-08-23T00:26:00;100587.66;;;21.19;81.47
41712;BME280;27399;51.516;13.670;2022-08-23T00:28:27;100583.81;;;21.05;80.99
41712;BME280;27399;51.516;13.670;2022-08-23T00:30:53;100579.88;;;21.30;80.42
41712;BME280;27399;51.516;13.670;2022-08-23T00:33:19;100576.03;;;21.17;81.09
41712;BME280;27399;51.516;13.670;2022-08-23T00:35:45;100582.00;;;21.24;80.75
41712;BME280;27399;51.516;13.670;2022-08-23T00:38:10;100576.88;;;21.17;81.15
41712;BME280;27399;51.516;13.670;2022-08-23T00:40:36;100576.41;;;21.09;81.58
41712;BME280;27399;51.516;13.670;2022-08-23T00:43:05;100579.59;;;21.17;81.13
41712;BME280;27399;51.516;13.670;2022-08-23T00:48:59;100573.94;;;21.22;81.03
41712;BME280;27399;51.516;13.670;2022-08-23T00:51:33;100576.34;;;21.28;80.42
41712;BME280;27399;51.516;13.670;2022-08-23T00:54:01;100583.59;;;21.28;80.72
41712;BME280;27399;51.516;13.670;2022-08-23T00:56:32;100589.44;;;21.20;81.79
41712;BME280;27399;51.516;13.670;2022-08-23T00:58:58;100585.69;;;21.23;81.35
41712;BME280;27399;51.516;13.670;2022-08-23T01:01:24;100575.03;;;21.00;82.01
41712;BME280;27399;51.516;13.670;2022-08-23T01:03:52;100579.53;;;21.19;80.70
41712;BME280;27399;51.516;13.670;2022-08-23T01:06:21;100578.88;;;21.14;82.25
41712;BME280;27399;51.516;13.670;2022-08-23T01:08:51;100565.53;;;21.09;81.94
41712;BME280;27399;51.516;13.670;2022-08-23T01:11:21;100573.41;;;21.15;81.76
41712;BME280;27399;51.516;13.670;2022-08-23T01:13:54;100561.88;;;21.10;82.00
41712;BME280;27399;51.516;13.670;2022-08-23T01:16:26;100572.25;;;21.02;82.04
41712;BME280;27399;51.516;13.670;2022-08-23T01:18:53;100572.72;;;21.10;81.65
41712;BME280;27399;51.516;13.670;2022-08-23T01:21:29;100570.03;;;21.10;81.43
41712;BME280;27399;51.516;13.670;2022-08-23T01:23:57;100564.97;;;21.02;81.34
41712;BME280;27399;51.516;13.670;2022-08-23T01:26:24;100566.59;;;21.07;81.92
41712;BME280;27399;51.516;13.670;2022-08-23T01:28:52;100557.53;;;20.88;82.07
41712;BME280;27399;51.516;13.670;2022-08-23T01:31:18;100568.09;;;20.95;82.18
41712;BME280;27399;51.516;13.670;2022-08-23T01:33:45;100560.91;;;20.94;82.46
41712;BME280;27399;51.516;13.670;2022-08-23T01:36:13;100559.16;;;20.93;81.59
41712;BME280;27399;51.516;13.670;2022-08-23T01:38:40;100567.78;;;21.01;82.37
41712;BME280;27399;51.516;13.670;2022-08-23T01:41:06;100562.34;;;21.01;82.54
41712;BME280;27399;51.516;13.670;2022-08-23T01:43:33;100565.88;;;21.03;82.38
41712;BME280;27399;51.516;13.670;2022-08-23T01:46:07;100566.47;;;20.90;82.54
41712;BME280;27399;51.516;13.670;2022-08-23T01:48:34;100564.34;;;20.97;81.95
41712;BME280;27399;51.516;13.670;2022-08-23T01:51:00;100567.69;;;21.02;81.77
41712;BME280;27399;51.516;13.670;2022-08-23T01:53:25;100568.03;;;21.14;81.65
41712;BME280;27399;51.516;13.670;2022-08-23T01:55:51;100562.47;;;21.17;81.53
41712;BME280;27399;51.516;13.670;2022-08-23T01:58:16;100558.69;;;21.02;81.84
41712;BME280;27399;51.516;13.670;2022-08-23T02:00:42;100559.56;;;21.02;82.10
41712;BME280;27399;51.516;13.670;2022-08-23T02:03:08;100555.72;;;20.89;82.26
41712;BME280;27399;51.516;13.670;2022-08-23T02:05:37;100556.66;;;20.69;82.71
41712;BME280;27399;51.516;13.670;2022-08-23T02:08:04;100554.03;;;20.86;82.83
41712;BME280;27399;51.516;13.670;2022-08-23T02:10:48;100554.84;;;21.06;81.76
41712;BME280;27399;51.516;13.670;2022-08-23T02:13:15;100553.38;;;20.81;83.01
41712;BME280;27399;51.516;13.670;2022-08-23T02:15:42;100551.09;;;20.72;83.17
41712;BME280;27399;51.516;13.670;2022-08-23T02:18:09;100555.50;;;20.74;82.98
41712;BME280;27399;51.516;13.670;2022-08-23T02:20:35;100556.22;;;20.97;82.97
41712;BME280;27399;51.516;13.670;2022-08-23T02:23:00;100552.03;;;20.90;83.51
41712;BME280;27399;51.516;13.670;2022-08-23T02:25:27;100555.16;;;20.82;83.87
41712;BME280;27399;51.516;13.670;2022-08-23T02:27:53;100550.31;;;20.89;84.04
41712;BME280;27399;51.516;13.670;2022-08-23T02:30:19;100551.72;;;20.79;84.45
41712;BME280;27399;51.516;13.670;2022-08-23T02:32:45;100554.72;;;20.90;84.25
41712;BME280;27399;51.516;13.670;2022-08-23T02:35:11;100552.13;;;20.88;85.01
41712;BME280;27399;51.516;13.670;2022-08-23T02:37:37;100549.50;;;20.87;85.20
41712;BME280;27399;51.516;13.670;2022-08-23T02:40:03;100563.41;;;20.79;85.25
41712;BME280;27399;51.516;13.670;2022-08-23T02:42:29;100565.16;;;20.80;85.62
41712;BME280;27399;51.516;13.670;2022-08-23T02:44:54;100565.91;;;20.84;85.94
41712;BME280;27399;51.516;13.670;2022-08-23T02:47:20;100572.00;;;20.89;85.49
41712;BME280;27399;51.516;13.670;2022-08-23T02:49:46;100574.03;;;20.84;85.97
41712;BME280;27399;51.516;13.670;2022-08-23T02:52:11;100574.94;;;20.84;86.03
41712;BME280;27399;51.516;13.670;2022-08-23T02:54:37;100581.69;;;20.93;85.66
41712;BME280;27399;51.516;13.670;2022-08-23T02:57:03;100590.38;;;20.82;86.66
41712;BME280;27399;51.516;13.670;2022-08-23T02:59:28;100581.84;;;20.90;86.15
41712;BME280;27399;51.516;13.670;2022-08-23T03:01:54;100580.13;;;20.89;86.20
41712;BME280;27399;51.516;13.670;2022-08-23T03:04:20;100576.28;;;20.55;88.08
41712;BME280;27399;51.516;13.670;2022-08-23T03:06:46;100572.56;;;20.57;88.13
41712;BME280;27399;51.516;13.670;2022-08-23T03:09:12;100580.03;;;20.52;88.10
41712;BME280;27399;51.516;13.670;2022-08-23T03:11:41;100579.69;;;20.79;87.29
41712;BME280;27399;51.516;13.670;2022-08-23T03:14:07;100581.03;;;20.69;88.08
41712;BME280;27399;51.516;13.670;2022-08-23T03:16:33;100585.50;;;20.70;87.95
41712;BME280;27399;51.516;13.670;2022-08-23T03:18:59;100582.13;;;20.65;87.85
41712;BME280;27399;51.516;13.670;2022-08-23T03:21:26;100581.28;;;20.83;87.02
41712;BME280;27399;51.516;13.670;2022-08-23T03:23:52;100588.44;;;20.65;88.32
41712;BME280;27399;51.516;13.670;2022-08-23T03:26:17;100584.19;;;20.59;88.33
41712;BME280;27399;51.516;13.670;2022-08-23T03:28:43;100589.13;;;20.51;89.28
41712;BME280;27399;51.516;13.670;2022-08-23T03:31:10;100593.28;;;20.58;88.94
41712;BME280;27399;51.516;13.670;2022-08-23T03:33:36;100595.31;;;20.53;88.64
41712;BME280;27399;51.516;13.670;2022-08-23T03:36:03;100595.63;;;20.47;89.17
41712;BME280;27399;51.516;13.670;2022-08-23T03:38:30;100593.13;;;20.62;88.07
41712;BME280;27399;51.516;13.670;2022-08-23T03:40:57;100600.00;;;20.69;88.13
41712;BME280;27399;51.516;13.670;2022-08-23T03:43:23;100596.78;;;20.61;88.33
41712;BME280;27399;51.516;13.670;2022-08-23T03:45:49;100594.31;;;20.56;89.18
41712;BME280;27399;51.516;13.670;2022-08-23T03:48:14;100589.69;;;20.58;88.76
41712;BME280;27399;51.516;13.670;2022-08-23T03:50:42;100586.91;;;20.59;88.58
41712;BME280;27399;51.516;13.670;2022-08-23T03:53:08;100597.28;;;20.50;88.88
41712;BME280;27399;51.516;13.670;2022-08-23T03:55:34;100599.41;;;20.43;88.79
41712;BME280;27399;51.516;13.670;2022-08-23T03:58:00;100599.28;;;20.46;89.43
41712;BME280;27399;51.516;13.670;2022-08-23T04:00:25;100595.69;;;20.65;89.09
41712;BME280;27399;51.516;13.670;2022-08-23T04:02:51;100600.91;;;20.50;89.27
41712;BME280;27399;51.516;13.670;2022-08-23T04:05:18;100599.56;;;20.59;89.07
41712;BME280;27399;51.516;13.670;2022-08-23T04:07:44;100607.31;;;20.48;90.09
41712;BME280;27399;51.516;13.670;2022-08-23T04:10:10;100602.94;;;20.64;88.91
41712;BME280;27399;51.516;13.670;2022-08-23T04:12:39;100609.63;;;20.17;90.97
41712;BME280;27399;51.516;13.670;2022-08-23T04:15:05;100603.75;;;20.47;89.69
41712;BME280;27399;51.516;13.670;2022-08-23T04:17:31;100607.47;;;20.44;90.09
41712;BME280;27399;51.516;13.670;2022-08-23T04:19:57;100607.88;;;20.16;91.37
41712;BME280;27399;51.516;13.670;2022-08-23T04:22:23;100610.16;;;20.25;90.88
41712;BME280;27399;51.516;13.670;2022-08-23T04:24:49;100607.75;;;20.38;90.05
41712;BME280;27399;51.516;13.670;2022-08-23T04:27:15;100609.16;;;20.47;89.99
41712;BME280;27399;51.516;13.670;2022-08-23T04:29:41;100604.41;;;20.52;89.39
41712;BME280;27399;51.516;13.670;2022-08-23T04:32:07;100612.16;;;20.60;89.45
41712;BME280;27399;51.516;13.670;2022-08-23T04:34:35;100602.50;;;20.54;89.55
41712;BME280;27399;51.516;13.670;2022-08-23T04:37:02;100612.25;;;20.58;89.79
41712;BME280;27399;51.516;13.670;2022-08-23T04:39:28;100606.16;;;20.53;89.65
41712;BME280;27399;51.516;13.670;2022-08-23T04:41:54;100609.22;;;20.65;89.44
41712;BME280;27399;51.516;13.670;2022-08-23T04:44:37;100611.34;;;20.39;90.14
41712;BME280;27399;51.516;13.670;2022-08-23T04:47:04;100615.88;;;20.38;90.73
41712;BME280;27399;51.516;13.670;2022-08-23T04:49:31;100614.28;;;20.53;90.49
41712;BME280;27399;51.516;13.670;2022-08-23T04:51:57;100613.06;;;20.61;89.14
41712;BME280;27399;51.516;13.670;2022-08-23T04:54:23;100611.28;;;20.59;89.35
41712;BME280;27399;51.516;13.670;2022-08-23T04:56:49;100615.09;;;20.55;89.27
41712;BME280;27399;51.516;13.670;2022-08-23T04:59:14;100617.56;;;20.60;89.40
41712;BME280;27399;51.516;13.670;2022-08-23T05:01:40;100619.03;;;20.48;89.13
41712;BME280;27399;51.516;13.670;2022-08-23T05:04:07;100625.75;;;20.39;90.24
41712;BME280;27399;51.516;13.670;2022-08-23T05:06:32;100610.84;;;20.31;90.68
41712;BME280;27399;51.516;13.670;2022-08-23T05:08:58;100613.75;;;20.45;89.84
41712;BME280;27399;51.516;13.670;2022-08-23T05:11:25;100613.19;;;20.57;89.59
41712;BME280;27399;51.516;13.670;2022-08-23T05:13:52;100617.75;;;20.57;89.89
41712;BME280;27399;51.516;13.670;2022-08-23T05:16:18;100622.13;;;20.59;89.72
41712;BME280;27399;51.516;13.670;2022-08-23T05:18:44;100620.34;;;20.39;90.61
41712;BME280;27399;51.516;13.670;2022-08-23T05:21:16;100620.94;;;20.46;89.90
41712;BME280;27399;51.516;13.670;2022-08-23T05:23:42;100621.63;;;20.51;89.33
41712;BME280;27399;51.516;13.670;2022-08-23T05:26:08;100625.28;;;20.50;90.35
41712;BME280;27399;51.516;13.670;2022-08-23T05:28:38;100627.25;;;20.66;89.72
41712;BME280;27399;51.516;13.670;2022-08-23T05:31:09;100623.72;;;20.64;89.43
41712;BME280;27399;51.516;13.670;2022-08-23T05:33:35;100628.38;;;20.62;89.93
41712;BME280;27399;51.516;13.670;2022-08-23T05:36:01;100634.28;;;20.70;89.56
41712;BME280;27399;51.516;13.670;2022-08-23T05:38:27;100637.09;;;20.68;89.68
41712;BME280;27399;51.516;13.670;2022-08-23T05:40:54;100638.53;;;20.56;90.39
41712;BME280;27399;51.516;13.670;2022-08-23T05:43:21;100640.75;;;20.67;90.09
41712;BME280;27399;51.516;13.670;2022-08-23T05:45:47;100643.38;;;20.69;90.14
41712;BME280;27399;51.516;13.670;2022-08-23T05:48:13;100644.44;;;20.65;89.68
41712;BME280;27399;51.516;13.670;2022-08-23T05:50:40;100644.22;;;20.69;89.74
41712;BME280;27399;51.516;13.670;2022-08-23T05:53:06;100649.78;;;20.47;90.69
41712;BME280;27399;51.516;13.670;2022-08-23T05:55:32;100661.56;;;20.46;91.35
41712;BME280;27399;51.516;13.670;2022-08-23T05:57:58;100660.63;;;20.47;91.33
41712;BME280;27399;51.516;13.670;2022-08-23T06:00:24;100652.00;;;20.79;89.76
41712;BME280;27399;51.516;13.670;2022-08-23T06:02:50;100654.84;;;20.76;90.08
41712;BME280;27399;51.516;13.670;2022-08-23T06:05:16;100657.00;;;20.67;90.82
41712;BME280;27399;51.516;13.670;2022-08-23T06:07:41;100653.13;;;20.73;90.68
41712;BME280;27399;51.516;13.670;2022-08-23T06:10:08;100664.97;;;20.51;91.62
41712;BME280;27399;51.516;13.670;2022-08-23T06:12:33;100669.94;;;20.61;91.14
41712;BME280;27399;51.516;13.670;2022-08-23T06:15:00;100664.63;;;20.78;90.67
41712;BME280;27399;51.516;13.670;2022-08-23T06:17:26;100667.66;;;20.70;91.20
41712;BME280;27399;51.516;13.670;2022-08-23T06:19:52;100668.28;;;20.77;91.11
41712;BME280;27399;51.516;13.670;2022-08-23T06:22:19;100673.47;;;20.63;92.09
41712;BME280;27399;51.516;13.670;2022-08-23T06:24:45;100679.69;;;20.65;91.36
41712;BME280;27399;51.516;13.670;2022-08-23T06:27:12;100685.88;;;20.87;90.82
41712;BME280;27399;51.516;13.670;2022-08-23T06:29:38;100672.50;;;20.84;90.54
41712;BME280;27399;51.516;13.670;2022-08-23T06:32:04;100677.97;;;20.83;91.08
41712;BME280;27399;51.516;13.670;2022-08-23T06:34:36;100672.84;;;20.77;91.42
41712;BME280;27399;51.516;13.670;2022-08-23T06:37:04;100678.59;;;20.69;92.29
41712;BME280;27399;51.516;13.670;2022-08-23T06:39:30;100686.22;;;20.61;91.70
41712;BME280;27399;51.516;13.670;2022-08-23T06:41:59;100678.47;;;20.72;91.95
41712;BME280;27399;51.516;13.670;2022-08-23T06:44:26;100687.28;;;20.77;92.48
41712;BME280;27399;51.516;13.670;2022-08-23T06:46:52;100678.88;;;20.83;92.22
41712;BME280;27399;51.516;13.670;2022-08-23T06:49:20;100683.75;;;20.75;92.53
41712;BME280;27399;51.516;13.670;2022-08-23T06:51:47;100676.22;;;21.01;91.17
41712;BME280;27399;51.516;13.670;2022-08-23T06:54:14;100679.88;;;21.00;91.03
41712;BME280;27399;51.516;13.670;2022-08-23T06:56:41;100680.03;;;20.78;92.50
41712;BME280;27399;51.516;13.670;2022-08-23T06:59:06;100684.06;;;20.88;91.73
41712;BME280;27399;51.516;13.670;2022-08-23T07:01:34;100685.66;;;20.92;91.67
41712;BME280;27399;51.516;13.670;2022-08-23T07:04:01;100682.72;;;20.97;91.80
41712;BME280;27399;51.516;13.670;2022-08-23T07:06:27;100688.69;;;21.05;91.19
41712;BME280;27399;51.516;13.670;2022-08-23T07:08:53;100686.19;;;21.00;91.91
41712;BME280;27399;51.516;13.670;2022-08-23T07:11:20;100681.63;;;21.20;90.09
41712;BME280;27399;51.516;13.670;2022-08-23T07:13:46;100695.19;;;21.20;90.58
41712;BME280;27399;51.516;13.670;2022-08-23T07:16:12;100692.94;;;20.92;91.46
41712;BME280;27399;51.516;13.670;2022-08-23T07:18:39;100691.09;;;21.11;90.94
41712;BME280;27399;51.516;13.670;2022-08-23T07:21:05;100682.50;;;21.20;90.99
41712;BME280;27399;51.516;13.670;2022-08-23T07:23:31;100687.94;;;21.20;91.50
41712;BME280;27399;51.516;13.670;2022-08-23T07:26:00;100691.75;;;21.16;91.52
41712;BME280;27399;51.516;13.670;2022-08-23T07:28:26;100691.75;;;21.16;91.76
41712;BME280;27399;51.516;13.670;2022-08-23T07:30:52;100692.72;;;21.15;91.29
41712;BME280;27399;51.516;13.670;2022-08-23T07:33:19;100701.97;;;21.29;91.37
41712;BME280;27399;51.516;13.670;2022-08-23T07:35:48;100700.19;;;21.10;91.60
41712;BME280;27399;51.516;13.670;2022-08-23T07:38:14;100703.28;;;21.39;90.80
41712;BME280;27399;51.516;13.670;2022-08-23T07:40:40;100698.56;;;21.25;92.30
41712;BME280;27399;51.516;13.670;2022-08-23T07:43:06;100710.28;;;21.26;91.42
41712;BME280;27399;51.516;13.670;2022-08-23T07:45:32;100709.53;;;21.41;91.01
41712;BME280;27399;51.516;13.670;2022-08-23T07:47:59;100703.81;;;21.47;91.37
41712;BME280;27399;51.516;13.670;2022-08-23T07:50:24;100698.44;;;21.46;91.20
41712;BME280;27399;51.516;13.670;2022-08-23T07:52:50;100696.75;;;21.43;91.63
41712;BME280;27399;51.516;13.670;2022-08-23T07:55:16;100695.50;;;21.50;90.56
41712;BME280;27399;51.516;13.670;2022-08-23T07:57:42;100706.09;;;21.38;91.10
41712;BME280;27399;51.516;13.670;2022-08-23T08:00:08;100702.44;;;21.56;90.06
41712;BME280;27399;51.516;13.670;2022-08-23T08:02:33;100702.25;;;21.61;90.28
41712;BME280;27399;51.516;13.670;2022-08-23T08:04:59;100696.59;;;21.65;90.44
41712;BME280;27399;51.516;13.670;2022-08-23T08:07:24;100699.34;;;21.46;91.05
41712;BME280;27399;51.516;13.670;2022-08-23T08:09:51;100698.13;;;21.71;89.57
41712;BME280;27399;51.516;13.670;2022-08-23T08:12:17;100704.09;;;21.60;90.09
41712;BME280;27399;51.516;13.670;2022-08-23T08:14:42;100707.22;;;21.70;90.11
41712;BME280;27399;51.516;13.670;2022-08-23T08:17:08;100704.00;;;21.62;91.44
41712;BME280;27399;51.516;13.670;2022-08-23T08:19:33;100701.78;;;21.70;90.79
41712;BME280;27399;51.516;13.670;2022-08-23T08:21:59;100707.69;;;21.61;91.23
41712;BME280;27399;51.516;13.670;2022-08-23T08:24:24;100708.50;;;21.80;89.94
41712;BME280;27399;51.516;13.670;2022-08-23T08:26:50;100706.56;;;21.65;90.38
41712;BME280;27399;51.516;13.670;2022-08-23T08:29:16;100713.38;;;21.74;90.52
41712;BME280;27399;51.516;13.670;2022-08-23T08:31:43;100707.88;;;21.93;89.67
41712;BME280;27399;51.516;13.670;2022-08-23T08:34:09;100705.34;;;22.07;89.53
41712;BME280;27399;51.516;13.670;2022-08-23T08:36:43;100706.44;;;21.86;91.08
41712;BME280;27399;51.516;13.670;2022-08-23T08:39:11;100704.44;;;22.07;88.88
41712;BME280;27399;51.516;13.670;2022-08-23T08:41:40;100706.28;;;22.24;88.78
41712;BME280;27399;51.516;13.670;2022-08-23T08:44:21;100702.63;;;22.07;90.49
41712;BME280;27399;51.516;13.670;2022-08-23T08:46:50;100702.28;;;22.31;88.24
41712;BME280;27399;51.516;13.670;2022-08-23T08:49:37;100702.44;;;22.28;88.34
41712;BME280;27399;51.516;13.670;2022-08-23T08:52:08;100701.56;;;22.27;88.47
41712;BME280;27399;51.516;13.670;2022-08-23T08:54:37;100697.97;;;22.44;86.78
41712;BME280;27399;51.516;13.670;2022-08-23T08:57:03;100693.97;;;22.52;88.34
41712;BME280;27399;51.516;13.670;2022-08-23T09:02:17;100697.00;;;22.46;88.72
41712;BME280;27399;51.516;13.670;2022-08-23T09:04:43;100699.91;;;22.42;87.91
41712;BME280;27399;51.516;13.670;2022-08-23T09:07:11;100692.22;;;22.51;87.46
41712;BME280;27399;51.516;13.670;2022-08-23T09:09:47;100693.63;;;22.58;85.97
41712;BME280;27399;51.516;13.670;2022-08-23T09:12:39;100696.03;;;22.64;86.89
41712;BME280;27399;51.516;13.670;2022-08-23T09:20:14;100704.44;;;22.75;86.37
41712;BME280;27399;51.516;13.670;2022-08-23T09:22:40;100704.03;;;22.50;87.19
41712;BME280;27399;51.516;13.670;2022-08-23T09:25:10;100701.72;;;22.42;86.60
41712;BME280;27399;51.516;13.670;2022-08-23T09:27:36;100708.16;;;22.57;86.94
41712;BME280;27399;51.516;13.670;2022-08-23T09:30:03;100706.69;;;22.85;85.41
41712;BME280;27399;51.516;13.670;2022-08-23T09:32:33;100712.09;;;22.85;86.15
41712;BME280;27399;51.516;13.670;2022-08-23T09:37:45;100707.41;;;23.04;85.32
41712;BME280;27399;51.516;13.670;2022-08-23T09:40:14;100709.13;;;22.89;84.94
41712;BME280;27399;51.516;13.670;2022-08-23T09:42:40;100713.75;;;22.71;85.69
41712;BME280;27399;51.516;13.670;2022-08-23T09:45:23;100704.06;;;23.15;83.67
41712;BME280;27399;51.516;13.670;2022-08-23T09:47:49;100707.03;;;23.11;84.48
41712;BME280;27399;51.516;13.670;2022-08-23T09:50:25;100701.63;;;23.27;84.71
41712;BME280;27399;51.516;13.670;2022-08-23T09:55:28;100713.75;;;23.21;83.46
41712;BME280;27399;51.516;13.670;2022-08-23T09:57:55;100700.56;;;23.29;81.69
41712;BME280;27399;51.516;13.670;2022-08-23T10:00:23;100712.03;;;23.02;83.20
41712;BME280;27399;51.516;13.670;2022-08-23T10:02:49;100714.59;;;23.05;83.75
41712;BME280;27399;51.516;13.670;2022-08-23T10:05:22;100712.03;;;23.18;83.20
41712;BME280;27399;51.516;13.670;2022-08-23T10:07:56;100707.50;;;23.35;83.06
41712;BME280;27399;51.516;13.670;2022-08-23T10:12:49;100715.06;;;23.46;82.60
41712;BME280;27399;51.516;13.670;2022-08-23T10:15:15;100729.59;;;23.13;83.70
41712;BME280;27399;51.516;13.670;2022-08-23T10:17:48;100715.94;;;23.30;81.96
41712;BME280;27399;51.516;13.670;2022-08-23T10:22:49;100719.00;;;23.24;83.44
41712;BME280;27399;51.516;13.670;2022-08-23T10:25:22;100717.91;;;23.11;81.93
41712;BME280;27399;51.516;13.670;2022-08-23T10:30:56;100727.59;;;23.32;83.95
41712;BME280;27399;51.516;13.670;2022-08-23T10:33:41;100729.38;;;23.33;82.30
41712;BME280;27399;51.516;13.670;2022-08-23T10:36:14;100728.56;;;23.47;82.74
41712;BME280;27399;51.516;13.670;2022-08-23T10:39:09;100728.13;;;23.39;82.15
41712;BME280;27399;51.516;13.670;2022-08-23T10:42:12;100733.41;;;23.26;82.31
41712;BME280;27399;51.516;13.670;2022-08-23T10:44:44;100733.16;;;23.47;84.54
41712;BME280;27399;51.516;13.670;2022-08-23T10:49:51;100737.91;;;23.10;86.66
41712;BME280;27399;51.516;13.670;2022-08-23T10:52:30;100736.41;;;23.38;84.14
41712;BME280;27399;51.516;13.670;2022-08-23T10:54:58;100733.38;;;23.10;86.58
41712;BME280;27399;51.516;13.670;2022-08-23T10:57:33;100731.94;;;23.03;88.51
41712;BME280;27399;51.516;13.670;2022-08-23T10:59:59;100722.88;;;23.20;87.17
41712;BME280;27399;51.516;13.670;2022-08-23T11:02:31;100726.47;;;23.36;87.48
41712;BME280;27399;51.516;13.670;2022-08-23T11:05:04;100721.47;;;23.29;87.54
41712;BME280;27399;51.516;13.670;2022-08-23T11:07:39;100718.31;;;23.52;85.50
41712;BME280;27399;51.516;13.670;2022-08-23T11:10:08;100716.81;;;23.63;84.35
41712;BME280;27399;51.516;13.670;2022-08-23T11:12:35;100724.63;;;23.53;84.68
41712;BME280;27399;51.516;13.670;2022-08-23T11:15:18;100723.91;;;23.65;84.36
41712;BME280;27399;51.516;13.670;2022-08-23T11:28:28;100729.00;;;23.40;85.70
41712;BME280;27399;51.516;13.670;2022-08-23T11:30:44;100729.38;;;23.49;83.81
41712;BME280;27399;51.516;13.670;2022-08-23T11:33:14;100732.72;;;23.39;85.41
41712;BME280;27399;51.516;13.670;2022-08-23T11:35:46;100733.06;;;23.32;83.33
41712;BME280;27399;51.516;13.670;2022-08-23T11:38:13;100725.50;;;23.21;83.65
41712;BME280;27399;51.516;13.670;2022-08-23T11:40:55;100721.03;;;23.52;84.35
41712;BME280;27399;51.516;13.670;2022-08-23T11:43:37;100724.75;;;23.66;83.85
41712;BME280;27399;51.516;13.670;2022-08-23T11:48:39;100723.75;;;23.52;83.23
41712;BME280;27399;51.516;13.670;2022-08-23T11:51:13;100729.50;;;23.62;83.20
41712;BME280;27399;51.516;13.670;2022-08-23T11:58:51;100728.28;;;23.68;80.90
41712;BME280;27399;51.516;13.670;2022-08-23T12:01:30;100733.94;;;23.49;81.74
41712;BME280;27399;51.516;13.670;2022-08-23T12:03:57;100738.47;;;23.64;81.13
41712;BME280;27399;51.516;13.670;2022-08-23T12:06:44;100739.69;;;23.75;80.99
41712;BME280;27399;51.516;13.670;2022-08-23T12:17:05;100741.78;;;23.86;80.51
41712;BME280;27399;51.516;13.670;2022-08-23T12:22:22;100745.50;;;23.68;80.97
41712;BME280;27399;51.516;13.670;2022-08-23T12:24:49;100741.97;;;23.98;80.63
41712;BME280;27399;51.516;13.670;2022-08-23T12:27:29;100745.28;;;23.88;80.99
41712;BME280;27399;51.516;13.670;2022-08-23T12:32:27;100740.59;;;23.75;81.71
41712;BME280;27399;51.516;13.670;2022-08-23T12:35:10;100742.09;;;24.11;79.76
41712;BME280;27399;51.516;13.670;2022-08-23T12:38:01;100740.03;;;24.01;80.23
41712;BME280;27399;51.516;13.670;2022-08-23T12:40:43;100738.06;;;23.87;80.82
41712;BME280;27399;51.516;13.670;2022-08-23T12:43:10;100740.22;;;23.97;80.66
41712;BME280;27399;51.516;13.670;2022-08-23T12:45:41;100739.94;;;23.86;81.76
41712;BME280;27399;51.516;13.670;2022-08-23T12:48:07;100742.13;;;23.95;81.67
41712;BME280;27399;51.516;13.670;2022-08-23T12:50:35;100736.13;;;24.05;80.45
41712;BME280;27399;51.516;13.670;2022-08-23T12:53:03;100732.63;;;24.03;79.78
41712;BME280;27399;51.516;13.670;2022-08-23T12:55:31;100731.09;;;24.13;80.70
41712;BME280;27399;51.516;13.670;2022-08-23T12:57:56;100737.16;;;24.18;81.08
41712;BME280;27399;51.516;13.670;2022-08-23T13:00:49;100730.06;;;24.16;80.75
41712;BME280;27399;51.516;13.670;2022-08-23T13:03:15;100730.53;;;23.92;82.36
41712;BME280;27399;51.516;13.670;2022-08-23T13:05:42;100733.34;;;24.21;81.42
41712;BME280;27399;51.516;13.670;2022-08-23T13:08:10;100734.19;;;24.07;81.41
41712;BME280;27399;51.516;13.670;2022-08-23T13:10:38;100728.59;;;23.94;81.57
41712;BME280;27399;51.516;13.670;2022-08-23T13:13:06;100730.69;;;24.05;81.77
41712;BME280;27399;51.516;13.670;2022-08-23T13:15:39;100733.06;;;24.11;80.30
41712;BME280;27399;51.516;13.670;2022-08-23T13:18:05;100729.91;;;23.87;82.02
41712;BME280;27399;51.516;13.670;2022-08-23T13:20:30;100733.53;;;23.87;82.90
41712;BME280;27399;51.516;13.670;2022-08-23T13:25:25;100728.06;;;24.03;81.85
41712;BME280;27399;51.516;13.670;2022-08-23T13:27:55;100732.16;;;24.10;80.83
41712;BME280;27399;51.516;13.670;2022-08-23T13:30:22;100727.19;;;23.87;81.45
41712;BME280;27399;51.516;13.670;2022-08-23T13:32:49;100735.97;;;24.08;81.58
41712;BME280;27399;51.516;13.670;2022-08-23T13:40:32;100728.25;;;24.00;82.02
41712;BME280;27399;51.516;13.670;2022-08-23T13:43:05;100730.34;;;24.11;82.17
41712;BME280;27399;51.516;13.670;2022-08-23T13:45:35;100732.63;;;24.03;82.44
41712;BME280;27399;51.516;13.670;2022-08-23T13:50:30;100724.38;;;24.04;80.70
41712;BME280;27399;51.516;13.670;2022-08-23T13:52:56;100727.50;;;24.12;80.13
41712;BME280;27399;51.516;13.670;2022-08-23T13:55:22;100726.19;;;24.04;82.07